LZTT/TAT METAR and TAF weather

Enter ICAO airport designator
Station Type Date Time Source
LZTT METAR 2019/02/21 11:30 UTC NOAA

LZTT 211130Z 26014KT 9999 FEW043 BKN055 06/M03 Q1022 NOSIG


Station Type Date Time Source
LZTT Decoded METAR 2019/02/21 11:30 UTC NOAA

Poprad / Tatry, Slovakia (LZTT) 49-04N 020-15E 695M
Feb 21, 2019 - 06:30 AM EST / 2019.02.21 1130 UTC
Wind: from the W (260 degrees) at 16 MPH (14 KT):0
Visibility: greater than 7 mile(s):0
Sky conditions: mostly cloudy
Temperature: 42 F (6 C)
Dew Point: 26 F (-3 C)
Relative Humidity: 52%
Pressure (altimeter): 30.18 in. Hg (1022 hPa)
ob: LZTT 211130Z 26014KT 9999 FEW043 BKN055 06/M03 Q1022 NOSIG
cycle: 11

Station Type Date Time Source
LZTT TAF 2019/02/21 12:05 UTC NOAA

TAF LZTT 211100Z 2112/2212 25004KT 9999 FEW045 SCT060
TEMPO 2114/2118 27015G25KT
BECMG 2115/2117 9999 -RA SCT030 BKN070
TEMPO 2116/2200 4000 -RASN SCT012 BKN030 PROB30
TEMPO 2200/2206 2000 SN BKN012 OVC030


Example: see airport list